Time;durP1;ratioP1;P1;durP2;ratioP2;P2;SDS_P1;SDS_P2;PMS_P1;PMS_P2;Temp;Humidity;BMP_temperature;BMP_pressure;BME280_temperature;BME280_humidity;BME280_pressure;Samples;Min_cycle;Max_cycle;Signal;HPM_P1;HPM_P2
2022/10/29 00:00:40;;;;;;;4.85;2.78;;;22.40;66.30;;;;;;5052079;28;20369;-47
2022/10/29 00:03:06;;;;;;;4.53;2.72;;;22.40;66.20;;;;;;5051737;28;20047;-40
2022/10/29 00:05:32;;;;;;;4.72;2.95;;;22.40;66.20;;;;;;5047023;28;20682;-39
2022/10/29 00:07:57;;;;;;;3.92;2.47;;;22.40;66.20;;;;;;5062829;28;20349;-40
2022/10/29 00:10:23;;;;;;;5.10;2.85;;;22.40;66.20;;;;;;5052299;28;20104;-39
2022/10/29 00:12:49;;;;;;;3.75;2.20;;;22.40;66.10;;;;;;5051662;28;20062;-40
2022/10/29 00:15:14;;;;;;;11.93;2.60;;;22.40;66.10;;;;;;5048936;28;20485;-40
2022/10/29 00:17:40;;;;;;;6.00;2.60;;;22.40;66.10;;;;;;5038865;28;20029;-45
2022/10/29 00:20:06;;;;;;;2.90;2.20;;;22.40;66.00;;;;;;5051342;28;20047;-40
2022/10/29 00:22:32;;;;;;;6.75;3.38;;;22.40;65.90;;;;;;5046795;28;20111;-41
2022/10/29 00:24:58;;;;;;;5.35;2.85;;;22.30;65.90;;;;;;5050015;28;20029;-40
2022/10/29 00:27:24;;;;;;;4.78;2.30;;;22.40;66.00;;;;;;5041571;28;20163;-40
2022/10/29 00:29:49;;;;;;;5.35;3.25;;;22.40;66.00;;;;;;5050823;28;20025;-40
2022/10/29 00:32:15;;;;;;;5.60;2.58;;;22.40;66.00;;;;;;5052348;28;20044;-40
2022/10/29 00:34:40;;;;;;;5.70;2.83;;;22.40;65.90;;;;;;5033376;28;20036;-45
2022/10/29 00:37:06;;;;;;;4.28;2.63;;;22.30;65.90;;;;;;5051145;28;20037;-40
2022/10/29 00:39:32;;;;;;;5.68;2.70;;;22.40;65.90;;;;;;5049086;28;20032;-40
2022/10/29 00:41:58;;;;;;;5.85;2.40;;;22.30;65.80;;;;;;5033148;28;20021;-40
2022/10/29 00:44:28;;;;;;;4.72;2.53;;;22.40;65.80;;;;;;5045918;28;20037;-40
2022/10/29 00:47:12;;;;;;;5.53;2.40;;;22.30;65.70;;;;;;5044490;28;20036;-40
2022/10/29 00:49:39;;;;;;;6.80;2.85;;;22.30;65.70;;;;;;5048824;28;20125;-40
2022/10/29 00:52:06;;;;;;;4.18;2.58;;;22.30;65.70;;;;;;5047063;28;20025;-40
2022/10/29 00:54:36;;;;;;;4.07;2.47;;;22.30;65.70;;;;;;5051009;28;20023;-40
2022/10/29 00:57:16;;;;;;;3.53;2.25;;;22.30;65.70;;;;;;5049225;28;20033;-40
2022/10/29 00:59:43;;;;;;;5.07;2.35;;;22.30;65.60;;;;;;5049110;28;20358;-45
2022/10/29 01:02:09;;;;;;;4.28;2.40;;;22.30;65.60;;;;;;5051645;28;20017;-40
2022/10/29 01:04:36;;;;;;;5.22;2.80;;;22.30;65.60;;;;;;5044118;28;20044;-41
2022/10/29 01:07:02;;;;;;;5.75;2.50;;;22.30;65.60;;;;;;5050497;28;20031;-40
2022/10/29 01:09:27;;;;;;;3.88;2.38;;;22.30;65.50;;;;;;5050951;28;20393;-39
2022/10/29 01:12:11;;;;;;;5.38;2.45;;;22.30;65.50;;;;;;5050806;28;20071;-39
2022/10/29 01:15:11;;;;;;;6.18;3.08;;;22.30;65.50;;;;;;5037372;28;20471;-40
2022/10/29 01:18:03;;;;;;;3.83;2.38;;;22.30;65.40;;;;;;5051508;28;20020;-39
2022/10/29 01:20:32;;;;;;;4.72;2.05;;;22.30;65.40;;;;;;5050983;28;20025;-39
2022/10/29 01:23:07;;;;;;;5.07;2.50;;;22.30;65.40;;;;;;5049869;28;20021;-39
2022/10/29 01:25:51;;;;;;;5.80;2.42;;;22.30;65.40;;;;;;5049952;28;20032;-40
2022/10/29 01:28:46;;;;;;;4.55;2.60;;;22.30;65.40;;;;;;5051276;28;20416;-39
2022/10/29 01:31:30;;;;;;;3.45;2.30;;;22.30;65.30;;;;;;5051263;28;20450;-40
2022/10/29 01:34:10;;;;;;;2.85;2.00;;;22.30;65.20;;;;;;5038930;28;20393;-40
2022/10/29 01:36:35;;;;;;;4.82;2.85;;;22.30;65.20;;;;;;5048858;28;20048;-40
2022/10/29 01:39:12;;;;;;;2.63;1.90;;;22.30;65.30;;;;;;5050085;28;20195;-39
2022/10/29 01:41:40;;;;;;;6.47;2.90;;;22.30;65.20;;;;;;5052509;28;20096;-40
2022/10/29 01:44:34;;;;;;;3.75;2.20;;;22.30;65.20;;;;;;5048886;28;20064;-39
2022/10/29 01:47:02;;;;;;;3.50;2.00;;;22.30;65.20;;;;;;5051056;28;20028;-38
2022/10/29 01:49:34;;;;;;;4.20;2.40;;;22.20;65.10;;;;;;5050775;28;20017;-41
2022/10/29 01:52:02;;;;;;;3.85;2.00;;;22.30;65.10;;;;;;5050349;28;20642;-37
2022/10/29 01:54:28;;;;;;;3.83;2.17;;;22.30;65.10;;;;;;5048636;28;20040;-40
2022/10/29 01:56:58;;;;;;;4.60;2.42;;;22.30;65.10;;;;;;5045290;28;20013;-40
2022/10/29 01:59:27;;;;;;;6.10;2.50;;;22.30;65.10;;;;;;5048443;28;20461;-39
2022/10/29 02:02:21;;;;;;;3.67;1.90;;;22.30;65.10;;;;;;5050634;28;20051;-40
2022/10/29 02:05:05;;;;;;;3.50;2.08;;;22.30;65.10;;;;;;5037675;28;20462;-39
2022/10/29 02:07:50;;;;;;;4.50;2.65;;;22.30;65.00;;;;;;5050291;28;20455;-40
2022/10/29 02:10:39;;;;;;;6.10;2.38;;;22.30;65.00;;;;;;5050464;28;20024;-40
2022/10/29 02:13:06;;;;;;;3.83;2.47;;;22.20;65.00;;;;;;5045456;28;20021;-40
2022/10/29 02:15:41;;;;;;;3.83;2.25;;;22.20;65.00;;;;;;5020760;28;20351;-40
2022/10/29 02:18:07;;;;;;;5.43;1.90;;;22.30;65.00;;;;;;5050557;28;20029;-40
2022/10/29 02:20:33;;;;;;;5.57;2.65;;;22.30;65.00;;;;;;5048416;28;20024;-41
2022/10/29 02:22:59;;;;;;;3.40;1.90;;;22.30;64.90;;;;;;5048598;28;20865;-40
2022/10/29 02:25:26;;;;;;;5.68;2.38;;;22.20;64.90;;;;;;5043893;28;20458;-40
2022/10/29 02:27:52;;;;;;;6.72;2.42;;;22.20;64.80;;;;;;5051205;28;20102;-42
2022/10/29 02:30:18;;;;;;;3.78;1.83;;;22.30;64.80;;;;;;5053526;28;20051;-40
2022/10/29 02:32:44;;;;;;;5.40;2.50;;;22.20;65.40;;;;;;5046035;28;20020;-45
2022/10/29 02:35:10;;;;;;;4.63;2.20;;;22.20;64.80;;;;;;5053794;28;20041;-39
2022/10/29 02:37:35;;;;;;;4.15;2.28;;;22.20;64.90;;;;;;5053691;28;20036;-40
2022/10/29 02:40:01;;;;;;;3.88;1.98;;;22.20;64.90;;;;;;5052766;28;20017;-39
2022/10/29 02:42:27;;;;;;;6.63;2.80;;;22.20;64.90;;;;;;5051922;28;20089;-39
2022/10/29 02:44:52;;;;;;;4.15;2.22;;;22.20;64.80;;;;;;5050400;28;20040;-40
2022/10/29 02:47:18;;;;;;;3.72;1.92;;;22.20;64.80;;;;;;5054108;28;20025;-41
2022/10/29 02:49:44;;;;;;;3.45;2.00;;;22.20;64.70;;;;;;5052618;28;20029;-44
2022/10/29 02:52:09;;;;;;;4.05;2.15;;;22.20;64.80;;;;;;5053830;28;20025;-41
2022/10/29 02:54:35;;;;;;;4.15;2.50;;;22.20;64.80;;;;;;5048440;28;20423;-39
2022/10/29 02:57:00;;;;;;;4.43;2.40;;;22.20;64.70;;;;;;5052797;28;20636;-39
2022/10/29 02:59:26;;;;;;;2.58;2.05;;;22.20;64.80;;;;;;5053269;28;20024;-40
2022/10/29 03:01:52;;;;;;;3.67;2.08;;;22.20;64.70;;;;;;5052628;28;20417;-40
2022/10/29 03:04:17;;;;;;;5.07;2.50;;;22.20;64.70;;;;;;5041248;28;20056;-40
2022/10/29 03:06:43;;;;;;;4.93;2.55;;;22.20;64.80;;;;;;5052611;28;20041;-46
2022/10/29 03:09:08;;;;;;;3.53;1.88;;;22.20;64.70;;;;;;5042630;28;20028;-39
2022/10/29 03:11:34;;;;;;;3.05;2.10;;;22.20;64.70;;;;;;5053310;28;20104;-40
2022/10/29 03:13:59;;;;;;;7.78;2.70;;;22.20;64.70;;;;;;5048800;28;20106;-39
2022/10/29 03:16:25;;;;;;;4.03;2.20;;;22.20;64.80;;;;;;5053797;28;20416;-39
2022/10/29 03:18:51;;;;;;;4.18;2.05;;;22.20;64.70;;;;;;5052543;28;20035;-40
2022/10/29 03:21:16;;;;;;;4.55;2.20;;;22.20;64.80;;;;;;5053418;28;20432;-39
2022/10/29 03:23:42;;;;;;;4.22;2.15;;;22.20;64.70;;;;;;5043648;28;20518;-46
2022/10/29 03:26:08;;;;;;;5.93;3.20;;;22.20;64.70;;;;;;5052642;28;20370;-39
2022/10/29 03:28:33;;;;;;;4.35;2.08;;;22.20;64.70;;;;;;5048514;28;20469;-40
2022/10/29 03:30:59;;;;;;;4.78;2.50;;;22.20;64.70;;;;;;5057186;28;20032;-40
2022/10/29 03:33:25;;;;;;;4.05;1.95;;;22.20;64.70;;;;;;5054128;28;20016;-39
2022/10/29 03:35:58;;;;;;;3.65;2.30;;;22.20;64.70;;;;;;5052150;28;20025;-39
2022/10/29 03:38:25;;;;;;;4.90;2.10;;;22.20;65.30;;;;;;5053103;28;20237;-38
2022/10/29 03:40:51;;;;;;;4.22;2.08;;;22.20;64.70;;;;;;5051653;28;20458;-40
2022/10/29 03:43:17;;;;;;;4.65;2.10;;;22.20;64.70;;;;;;5048229;28;20028;-40
2022/10/29 03:45:42;;;;;;;3.88;2.08;;;22.20;64.70;;;;;;5049372;28;20052;-48
2022/10/29 03:48:08;;;;;;;4.55;2.03;;;22.20;64.70;;;;;;5062294;28;20370;-40
2022/10/29 03:50:34;;;;;;;5.15;2.00;;;22.20;64.70;;;;;;5052611;28;20149;-39
2022/10/29 03:52:59;;;;;;;5.57;2.35;;;22.20;64.70;;;;;;5049683;28;20020;-39
2022/10/29 03:55:27;;;;;;;3.65;2.00;;;22.20;64.70;;;;;;5052588;28;20039;-39
2022/10/29 03:57:54;;;;;;;3.45;1.98;;;22.20;64.60;;;;;;5052022;28;20029;-39
2022/10/29 04:00:20;;;;;;;3.70;2.70;;;22.20;64.60;;;;;;5052590;28;20095;-40
2022/10/29 04:02:45;;;;;;;9.48;2.80;;;22.20;64.70;;;;;;5049072;28;20101;-40
2022/10/29 04:05:11;;;;;;;7.03;2.45;;;22.20;64.70;;;;;;5044379;28;20045;-39
2022/10/29 04:07:37;;;;;;;3.78;2.00;;;22.20;64.70;;;;;;5042818;28;20480;-39
2022/10/29 04:10:03;;;;;;;3.38;2.00;;;22.20;64.70;;;;;;5046301;28;20029;-39
2022/10/29 04:12:29;;;;;;;4.30;2.30;;;22.20;64.60;;;;;;5051150;28;20044;-39
2022/10/29 04:14:54;;;;;;;4.20;1.80;;;22.20;64.60;;;;;;5050937;28;20487;-39
2022/10/29 04:17:20;;;;;;;3.85;2.60;;;22.20;64.70;;;;;;5052291;28;20021;-40
2022/10/29 04:19:45;;;;;;;3.35;2.00;;;22.20;64.60;;;;;;5051099;28;20099;-40
2022/10/29 04:22:11;;;;;;;3.45;2.00;;;22.20;64.60;;;;;;5047848;28;20033;-43
2022/10/29 04:24:37;;;;;;;5.40;2.47;;;22.20;64.60;;;;;;5051142;28;20060;-40
2022/10/29 04:27:02;;;;;;;3.63;2.13;;;22.20;64.60;;;;;;5037583;28;20087;-40
2022/10/29 04:29:28;;;;;;;3.00;2.03;;;22.20;64.60;;;;;;5051434;28;20021;-40
2022/10/29 04:31:53;;;;;;;4.22;2.00;;;22.20;64.60;;;;;;5050964;28;20191;-40
2022/10/29 04:34:19;;;;;;;8.32;2.08;;;22.20;64.60;;;;;;5048012;28;20029;-40
2022/10/29 04:36:44;;;;;;;3.20;2.03;;;22.20;64.60;;;;;;5050969;28;20025;-40
2022/10/29 04:39:10;;;;;;;6.20;2.22;;;22.20;64.60;;;;;;5044234;28;20043;-39
2022/10/29 04:41:35;;;;;;;5.18;1.83;;;22.20;64.60;;;;;;5049006;28;20021;-40
2022/10/29 04:44:01;;;;;;;3.45;2.10;;;22.20;64.60;;;;;;5043043;28;20032;-40
2022/10/29 04:46:27;;;;;;;3.75;1.85;;;22.20;64.60;;;;;;5051687;28;20378;-40
2022/10/29 04:48:53;;;;;;;3.72;1.98;;;22.20;64.50;;;;;;5050022;28;20048;-40
2022/10/29 04:51:24;;;;;;;2.63;2.00;;;22.20;64.60;;;;;;5051459;28;20028;-39
2022/10/29 04:53:49;;;;;;;3.63;2.33;;;22.20;64.50;;;;;;5043249;28;20029;-40
2022/10/29 04:56:16;;;;;;;3.75;2.33;;;22.20;64.50;;;;;;5051657;28;20082;-40
2022/10/29 04:58:41;;;;;;;5.07;2.05;;;22.20;64.60;;;;;;5047424;28;20020;-48
2022/10/29 05:01:07;;;;;;;2.67;1.83;;;22.10;64.50;;;;;;5050482;28;20021;-40
2022/10/29 05:03:33;;;;;;;4.05;2.13;;;22.20;64.50;;;;;;5045812;28;20025;-39
2022/10/29 05:06:02;;;;;;;3.70;2.30;;;22.10;64.50;;;;;;5050056;28;20049;-39
2022/10/29 05:08:27;;;;;;;4.30;1.80;;;22.20;64.50;;;;;;5051578;28;20024;-39
2022/10/29 05:10:53;;;;;;;4.88;2.55;;;22.10;64.50;;;;;;5050677;28;20070;-40
2022/10/29 05:13:18;;;;;;;3.63;1.90;;;22.20;64.50;;;;;;5048852;28;20492;-40
2022/10/29 05:15:49;;;;;;;2.72;1.65;;;22.10;64.50;;;;;;5050342;28;20036;-40
2022/10/29 05:18:15;;;;;;;5.97;2.00;;;22.20;64.50;;;;;;5051201;28;20099;-40
2022/10/29 05:20:41;;;;;;;3.53;2.42;;;22.10;64.50;;;;;;5048032;28;20156;-45
2022/10/29 05:23:09;;;;;;;6.45;3.00;;;22.10;64.40;;;;;;5050585;28;20029;-42
2022/10/29 05:25:36;;;;;;;3.83;1.80;;;22.20;64.50;;;;;;5051174;28;20060;-40
2022/10/29 05:28:12;;;;;;;6.43;2.33;;;22.10;64.50;;;;;;5050399;28;20373;-39
2022/10/29 05:30:39;;;;;;;5.30;2.03;;;22.20;64.50;;;;;;5041109;28;20069;-38
2022/10/29 05:33:09;;;;;;;6.35;2.03;;;22.20;64.50;;;;;;5037763;28;20527;-38
2022/10/29 05:35:35;;;;;;;3.50;2.03;;;22.20;64.50;;;;;;5048044;28;20041;-38
2022/10/29 05:38:01;;;;;;;4.82;2.10;;;22.20;64.40;;;;;;5044186;28;20052;-37
2022/10/29 05:40:27;;;;;;;4.57;2.00;;;22.20;64.40;;;;;;5047286;28;20038;-38
2022/10/29 05:42:53;;;;;;;5.97;2.45;;;22.20;64.20;;;;;;5044981;28;20512;-39
2022/10/29 05:45:19;;;;;;;3.75;2.15;;;22.30;64.30;;;;;;5029612;28;20045;-39
2022/10/29 05:47:44;;;;;;;6.15;1.90;;;22.30;64.10;;;;;;5050039;28;20044;-42
2022/10/29 05:50:11;;;;;;;3.55;1.83;;;22.30;64.10;;;;;;5043839;28;20017;-39
2022/10/29 05:52:37;;;;;;;3.90;2.47;;;22.30;64.00;;;;;;5045234;28;20331;-40
2022/10/29 05:55:03;;;;;;;7.20;1.90;;;22.30;63.90;;;;;;5040922;28;20024;-40
2022/10/29 05:57:29;;;;;;;2.63;1.67;;;22.40;64.00;;;;;;5027213;28;20401;-38
2022/10/29 05:59:54;;;;;;;3.25;1.90;;;22.50;63.90;;;;;;5044627;28;20017;-38
2022/10/29 06:02:20;;;;;;;3.20;2.10;;;22.50;63.80;;;;;;5042194;28;20036;-38
2022/10/29 06:04:45;;;;;;;4.15;2.72;;;22.50;63.70;;;;;;5049882;28;20544;-39
2022/10/29 06:07:11;;;;;;;3.55;1.98;;;22.50;63.80;;;;;;5048558;28;20036;-38
2022/10/29 06:09:37;;;;;;;4.07;1.98;;;22.50;63.80;;;;;;5053056;28;20021;-39
2022/10/29 06:12:03;;;;;;;5.68;2.55;;;22.50;63.90;;;;;;5042209;28;20813;-39
2022/10/29 06:14:28;;;;;;;3.42;1.90;;;22.50;63.90;;;;;;5051525;28;20095;-40
2022/10/29 06:16:54;;;;;;;4.20;2.80;;;22.50;63.80;;;;;;5053542;28;20044;-39
2022/10/29 06:19:19;;;;;;;4.43;1.88;;;22.50;63.80;;;;;;5053182;28;20028;-37
2022/10/29 06:21:45;;;;;;;4.80;2.03;;;22.50;63.80;;;;;;5046785;28;20078;-45
2022/10/29 06:24:12;;;;;;;3.30;1.75;;;22.50;63.70;;;;;;5035247;28;20036;-38
2022/10/29 06:26:38;;;;;;;6.38;2.22;;;22.50;63.60;;;;;;5047061;28;20041;-38
2022/10/29 06:29:04;;;;;;;3.80;2.00;;;22.60;63.70;;;;;;5049292;28;20079;-38
2022/10/29 06:31:30;;;;;;;3.85;1.70;;;22.60;63.60;;;;;;5033749;28;20466;-37
2022/10/29 06:33:55;;;;;;;6.05;2.28;;;22.60;63.60;;;;;;5052366;28;20466;-37
2022/10/29 06:36:21;;;;;;;4.38;2.03;;;22.60;63.60;;;;;;5050544;28;20028;-37
2022/10/29 06:38:47;;;;;;;3.47;2.20;;;22.60;63.60;;;;;;5052124;28;20123;-38
2022/10/29 06:41:13;;;;;;;4.55;2.45;;;22.60;63.60;;;;;;5051108;28;20025;-38
2022/10/29 06:43:38;;;;;;;3.58;2.20;;;22.60;63.60;;;;;;5052585;28;20017;-38
2022/10/29 06:46:04;;;;;;;3.22;1.80;;;22.60;63.60;;;;;;5050516;28;20041;-38
2022/10/29 06:48:29;;;;;;;9.38;2.70;;;22.60;63.50;;;;;;5054937;28;20021;-39
2022/10/29 06:50:58;;;;;;;4.68;1.98;;;22.60;63.50;;;;;;5034480;28;20491;-38
2022/10/29 06:53:24;;;;;;;4.45;2.60;;;22.60;63.50;;;;;;5050507;28;20017;-39
2022/10/29 06:55:50;;;;;;;3.60;1.88;;;22.60;63.50;;;;;;5045012;28;20032;-36
2022/10/29 06:58:18;;;;;;;5.65;2.08;;;22.60;63.40;;;;;;5053311;28;20450;-38
2022/10/29 07:00:44;;;;;;;7.10;2.30;;;22.60;63.40;;;;;;5045483;28;20035;-44
2022/10/29 07:03:15;;;;;;;5.85;2.08;;;22.60;63.80;;;;;;5053313;28;20021;-39
2022/10/29 07:05:45;;;;;;;3.70;1.77;;;22.60;63.50;;;;;;5047367;28;20084;-45
2022/10/29 07:08:10;;;;;;;3.72;2.00;;;22.70;63.50;;;;;;5052892;28;20020;-39
2022/10/29 07:10:36;;;;;;;5.35;1.77;;;22.70;63.40;;;;;;5047283;28;20546;-39
2022/10/29 07:13:02;;;;;;;3.78;1.90;;;22.70;63.50;;;;;;5051848;28;20036;-39
2022/10/29 07:15:28;;;;;;;5.20;1.95;;;22.70;63.40;;;;;;5048706;28;20021;-38
2022/10/29 07:17:59;;;;;;;2.90;2.05;;;22.70;63.40;;;;;;5051952;28;20033;-39
2022/10/29 07:20:27;;;;;;;3.90;2.05;;;22.60;63.40;;;;;;5044166;28;20025;-39
2022/10/29 07:22:53;;;;;;;4.03;2.08;;;22.70;63.50;;;;;;5044511;28;20095;-38
2022/10/29 07:25:18;;;;;;;6.07;1.92;;;22.70;63.50;;;;;;5046148;28;20466;-39
2022/10/29 07:27:44;;;;;;;3.35;2.03;;;22.70;63.50;;;;;;5037347;28;20099;-41
2022/10/29 07:30:10;;;;;;;2.88;1.92;;;22.70;63.60;;;;;;5040793;28;20017;-39
2022/10/29 07:32:36;;;;;;;3.88;2.35;;;22.70;63.60;;;;;;5046417;28;20028;-39
2022/10/29 07:35:02;;;;;;;4.95;2.10;;;22.70;63.60;;;;;;5048290;28;20017;-39
2022/10/29 07:37:27;;;;;;;7.70;2.42;;;22.70;63.80;;;;;;5052345;28;20036;-38
2022/10/29 07:39:53;;;;;;;5.13;2.17;;;22.80;64.20;;;;;;5048915;28;20019;-39
2022/10/29 07:42:18;;;;;;;10.02;3.60;;;22.80;64.50;;;;;;5044475;28;20033;-39
2022/10/29 07:44:44;;;;;;;6.63;2.42;;;22.80;64.70;;;;;;5049386;28;20470;-44
2022/10/29 07:47:10;;;;;;;7.40;3.05;;;22.80;64.90;;;;;;5047145;28;20083;-40
2022/10/29 07:49:35;;;;;;;6.80;2.75;;;22.80;65.30;;;;;;5051254;28;20036;-47
2022/10/29 07:52:01;;;;;;;9.05;3.35;;;22.80;65.80;;;;;;5041715;28;20044;-39
2022/10/29 07:54:26;;;;;;;4.35;2.28;;;22.80;66.00;;;;;;5043612;28;20021;-39
2022/10/29 07:56:52;;;;;;;9.80;2.45;;;22.80;66.10;;;;;;5049199;28;20160;-39
2022/10/29 07:59:18;;;;;;;5.80;2.58;;;22.80;66.30;;;;;;5051822;28;20017;-38
2022/10/29 08:01:44;;;;;;;6.95;2.40;;;22.80;66.60;;;;;;5047221;28;20052;-41
2022/10/29 08:04:10;;;;;;;8.07;2.53;;;22.80;66.50;;;;;;5051946;28;20033;-38
2022/10/29 08:06:36;;;;;;;6.63;3.25;;;22.80;66.70;;;;;;5051950;28;20095;-38
2022/10/29 08:09:02;;;;;;;13.80;4.75;;;22.70;65.60;;;;;;5050773;28;20056;-38
2022/10/29 08:11:30;;;;;;;10.43;3.80;;;22.50;59.70;;;;;;5047810;28;20033;-39
2022/10/29 08:13:55;;;;;;;8.55;4.35;;;22.30;59.00;;;;;;5048161;28;20078;-38
2022/10/29 08:16:21;;;;;;;11.77;4.80;;;22.20;58.90;;;;;;5051732;28;20455;-39
2022/10/29 08:18:47;;;;;;;13.02;4.25;;;22.00;59.00;;;;;;5050841;28;20028;-40
2022/10/29 08:21:12;;;;;;;13.35;4.65;;;22.00;59.90;;;;;;5047761;28;20033;-39
2022/10/29 08:23:38;;;;;;;13.85;4.55;;;22.10;59.60;;;;;;5042549;28;20370;-40
2022/10/29 08:26:03;;;;;;;9.73;3.90;;;22.00;59.80;;;;;;5049826;28;20021;-38
2022/10/29 08:28:29;;;;;;;7.88;3.50;;;22.00;60.20;;;;;;5051846;28;20049;-38
2022/10/29 08:30:54;;;;;;;11.48;5.25;;;22.10;61.40;;;;;;5050085;28;20021;-38
2022/10/29 08:33:20;;;;;;;9.05;4.07;;;22.10;61.80;;;;;;5052703;28;20361;-38
2022/10/29 08:35:46;;;;;;;10.18;3.40;;;22.20;62.50;;;;;;5050923;28;20021;-39
2022/10/29 08:38:12;;;;;;;9.38;4.00;;;22.30;63.10;;;;;;5052385;28;20462;-37
2022/10/29 08:40:43;;;;;;;15.88;4.00;;;22.30;63.20;;;;;;5050530;28;20370;-39
2022/10/29 08:43:50;;;;;;;8.95;3.35;;;22.40;63.80;;;;;;5052230;28;20052;-38
2022/10/29 08:46:28;;;;;;;12.40;4.18;;;22.40;63.80;;;;;;4988255;28;20434;-38
2022/10/29 08:49:01;;;;;;;8.95;3.72;;;22.50;63.90;;;;;;4989364;28;20507;-38
2022/10/29 08:51:38;;;;;;;13.60;4.97;;;22.40;64.20;;;;;;5025651;28;20029;-38
2022/10/29 08:54:09;;;;;;;11.63;4.32;;;22.40;64.20;;;;;;5046744;28;20055;-40
2022/10/29 08:56:38;;;;;;;25.27;4.57;;;22.40;64.30;;;;;;5050808;28;20021;-41
2022/10/29 08:59:16;;;;;;;14.50;4.15;;;22.40;64.40;;;;;;5050543;28;20021;-40
2022/10/29 09:01:42;;;;;;;7.20;3.35;;;22.30;64.60;;;;;;5041594;28;20028;-43
2022/10/29 09:04:32;;;;;;;9.45;4.13;;;22.30;64.70;;;;;;5060792;28;20033;-38
2022/10/29 09:07:22;;;;;;;12.52;4.05;;;22.30;64.70;;;;;;5030882;28;20041;-38
2022/10/29 09:10:15;;;;;;;13.25;3.92;;;22.30;64.70;;;;;;5016965;28;20017;-39
2022/10/29 09:12:58;;;;;;;8.98;3.20;;;22.30;64.90;;;;;;5024986;28;20025;-43
2022/10/29 09:15:35;;;;;;;14.77;3.65;;;22.30;64.90;;;;;;5031378;28;20378;-38
2022/10/29 09:18:07;;;;;;;11.75;4.20;;;22.30;64.90;;;;;;5026445;28;20014;-36
2022/10/29 09:20:54;;;;;;;10.32;4.32;;;22.30;65.10;;;;;;5030083;28;20028;-37
2022/10/29 09:23:39;;;;;;;10.32;4.50;;;22.30;65.10;;;;;;5026404;28;20467;-38
2022/10/29 09:26:16;;;;;;;9.73;3.58;;;22.30;65.10;;;;;;5030552;28;20045;-38
2022/10/29 09:29:19;;;;;;;8.38;3.42;;;22.30;65.20;;;;;;5031392;28;20376;-43
2022/10/29 09:31:53;;;;;;;8.48;3.58;;;22.30;65.20;;;;;;5020107;28;20083;-38
2022/10/29 09:35:00;;;;;;;9.23;3.20;;;22.20;65.20;;;;;;5028916;28;20025;-37
2022/10/29 09:37:44;;;;;;;9.07;3.30;;;22.20;65.30;;;;;;5017940;28;20037;-38
2022/10/29 09:40:36;;;;;;;13.35;3.72;;;22.30;65.30;;;;;;5027628;28;20014;-37
2022/10/29 09:43:07;;;;;;;;;;;22.30;65.30;;;;;;5025723;28;20125;-38
2022/10/29 09:46:07;;;;;;;11.65;4.50;;;22.30;65.20;;;;;;5034774;28;19912;-36
2022/10/29 09:48:39;;;;;;;8.10;3.45;;;22.40;65.30;;;;;;4999730;28;20432;-39
2022/10/29 09:51:50;;;;;;;11.55;3.67;;;22.40;65.00;;;;;;5042814;28;20029;-39
2022/10/29 09:54:16;;;;;;;14.80;4.68;;;22.40;65.00;;;;;;5035439;28;20571;-39
2022/10/29 09:56:44;;;;;;;9.13;3.53;;;22.40;65.00;;;;;;5039759;28;20116;-43
2022/10/29 09:59:28;;;;;;;15.82;3.40;;;22.40;65.00;;;;;;5032467;28;20068;-39
2022/10/29 10:01:54;;;;;;;11.57;4.03;;;22.40;65.00;;;;;;5032964;28;20033;-39
2022/10/29 10:04:30;;;;;;;8.07;3.58;;;22.50;65.20;;;;;;5040717;28;20033;-39
2022/10/29 10:07:01;;;;;;;7.80;3.10;;;22.40;65.20;;;;;;5035894;28;20040;-39
2022/10/29 10:09:27;;;;;;;11.50;3.55;;;22.40;65.30;;;;;;5041253;28;20481;-39
2022/10/29 10:11:53;;;;;;;8.82;3.03;;;22.40;65.30;;;;;;5040950;28;20016;-39
2022/10/29 10:14:24;;;;;;;9.52;3.72;;;22.40;65.30;;;;;;5043469;28;20367;-40
2022/10/29 10:17:00;;;;;;;9.63;3.33;;;22.40;65.30;;;;;;5035803;28;20031;-40
2022/10/29 10:19:30;;;;;;;14.55;4.13;;;22.30;64.80;;;;;;5022964;28;20029;-40
2022/10/29 10:21:58;;;;;;;77.72;14.27;;;22.30;62.50;;;;;;5041481;28;20030;-39
2022/10/29 10:24:33;;;;;;;65.18;8.65;;;22.20;62.40;;;;;;5029071;28;20132;-39
2022/10/29 10:26:59;;;;;;;39.40;5.80;;;22.10;62.40;;;;;;5033393;28;20459;-41
2022/10/29 10:29:26;;;;;;;32.38;6.15;;;22.10;62.60;;;;;;5029460;28;20022;-39
2022/10/29 10:31:54;;;;;;;21.00;5.60;;;22.10;62.60;;;;;;5033949;28;20113;-40
2022/10/29 10:34:26;;;;;;;8.90;3.72;;;22.10;62.60;;;;;;5026669;28;20033;-41
2022/10/29 10:36:51;;;;;;;15.18;3.63;;;22.10;62.30;;;;;;5026771;28;20032;-40
2022/10/29 10:39:25;;;;;;;16.40;5.20;;;22.10;62.40;;;;;;5034136;28;20030;-39
2022/10/29 10:41:51;;;;;;;8.80;3.35;;;22.20;62.60;;;;;;5034014;28;20017;-38
2022/10/29 10:44:19;;;;;;;8.23;3.20;;;22.10;62.70;;;;;;5030122;28;20047;-38
2022/10/29 10:46:45;;;;;;;9.50;3.25;;;22.10;62.60;;;;;;5033743;28;20486;-38
2022/10/29 10:49:13;;;;;;;9.35;3.63;;;22.20;62.30;;;;;;5032671;28;20454;-38
2022/10/29 10:51:43;;;;;;;8.30;3.75;;;22.20;62.40;;;;;;5033844;28;20051;-40
2022/10/29 10:54:35;;;;;;;12.20;4.03;;;22.10;62.30;;;;;;5020611;28;20100;-40
2022/10/29 10:57:15;;;;;;;10.85;3.25;;;22.20;62.90;;;;;;5033499;28;20022;-38
2022/10/29 10:59:50;;;;;;;19.67;4.70;;;22.10;63.20;;;;;;5033516;28;20136;-51
2022/10/29 11:02:36;;;;;;;15.65;4.45;;;22.20;62.50;;;;;;5033633;28;20025;-38
2022/10/29 11:05:19;;;;;;;10.95;4.15;;;22.20;63.20;;;;;;5023656;28;20541;-39
2022/10/29 11:07:52;;;;;;;7.60;3.50;;;22.20;63.20;;;;;;5050602;28;20055;-41
2022/10/29 11:10:21;;;;;;;9.35;3.92;;;22.20;63.20;;;;;;5040866;28;20021;-39
2022/10/29 11:12:51;;;;;;;20.35;5.18;;;22.30;62.90;;;;;;5047471;28;20037;-39
2022/10/29 11:15:41;;;;;;;11.10;4.38;;;22.30;63.40;;;;;;5046409;28;20381;-39
2022/10/29 11:18:17;;;;;;;11.80;3.42;;;22.30;63.80;;;;;;5050077;28;20025;-38
2022/10/29 11:20:49;;;;;;;11.15;4.28;;;22.30;63.50;;;;;;5052299;28;20476;-42
2022/10/29 11:23:30;;;;;;;12.05;3.60;;;22.40;63.50;;;;;;5053271;28;20056;-39
2022/10/29 11:26:07;;;;;;;10.27;3.37;;;22.40;63.30;;;;;;5039088;28;20117;-39
2022/10/29 11:29:12;;;;;;;9.88;3.75;;;22.40;63.10;;;;;;5042227;28;20405;-38
2022/10/29 11:31:51;;;;;;;12.80;4.43;;;22.40;63.10;;;;;;5053216;28;20014;-39
2022/10/29 11:34:54;;;;;;;10.88;3.80;;;22.40;63.00;;;;;;5052644;28;20068;-38
2022/10/29 11:37:41;;;;;;;9.30;4.28;;;22.40;63.50;;;;;;5052302;28;20049;-38
2022/10/29 11:40:17;;;;;;;10.93;3.85;;;22.40;63.30;;;;;;5048289;28;20025;-39
2022/10/29 11:42:43;;;;;;;10.50;3.45;;;22.40;63.40;;;;;;5048425;28;20055;-42
2022/10/29 11:45:16;;;;;;;13.32;3.63;;;22.40;63.60;;;;;;5051074;28;20032;-38
2022/10/29 11:48:15;;;;;;;14.88;4.13;;;22.40;63.70;;;;;;5052665;28;20024;-42
2022/10/29 11:50:47;;;;;;;13.27;3.47;;;22.50;63.70;;;;;;5049761;28;20086;-42
2022/10/29 11:53:41;;;;;;;8.52;3.20;;;22.50;63.70;;;;;;5035207;28;20032;-41
2022/10/29 11:56:44;;;;;;;15.63;4.40;;;22.50;64.00;;;;;;5045479;28;20108;-38
2022/10/29 11:59:13;;;;;;;7.32;3.30;;;22.40;64.00;;;;;;5049960;28;20033;-38
2022/10/29 12:01:47;;;;;;;13.30;4.15;;;22.40;64.10;;;;;;5045207;28;20464;-39
2022/10/29 12:04:44;;;;;;;15.07;4.10;;;22.40;64.50;;;;;;5044346;28;20029;-38
2022/10/29 12:07:31;;;;;;;23.85;4.47;;;22.50;64.90;;;;;;5026967;28;20084;-38
2022/10/29 12:10:35;;;;;;;11.60;3.80;;;22.50;65.10;;;;;;5028389;28;20055;-37
2022/10/29 12:13:24;;;;;;;19.33;4.28;;;22.60;65.00;;;;;;5026414;28;20025;-38
2022/10/29 12:16:23;;;;;;;20.88;6.28;;;22.70;65.20;;;;;;5032305;28;20109;-36
2022/10/29 12:19:11;;;;;;;21.17;7.15;;;22.60;65.40;;;;;;5040533;28;20344;-37
2022/10/29 12:22:03;;;;;;;37.80;13.77;;;22.60;65.10;;;;;;5032346;28;20366;-37
2022/10/29 12:24:43;;;;;;;23.42;9.32;;;22.70;65.60;;;;;;5022192;28;20033;-37
2022/10/29 12:27:19;;;;;;;21.77;8.50;;;22.60;65.40;;;;;;5032258;28;20025;-37
2022/10/29 12:30:00;;;;;;;22.55;6.68;;;22.70;65.40;;;;;;5031313;28;20053;-46
2022/10/29 12:32:51;;;;;;;25.80;7.73;;;22.70;65.70;;;;;;5008861;28;20118;-38
2022/10/29 12:35:32;;;;;;;17.70;6.60;;;22.70;65.90;;;;;;4983262;28;20125;-38
2022/10/29 12:38:34;;;;;;;23.45;7.70;;;22.70;65.80;;;;;;5021810;28;20469;-38
2022/10/29 12:41:24;;;;;;;13.40;4.82;;;22.70;65.90;;;;;;5016007;28;20820;-37
2022/10/29 12:43:55;;;;;;;18.63;4.72;;;22.70;66.10;;;;;;5023832;28;20040;-36
2022/10/29 12:46:40;;;;;;;24.23;6.38;;;22.80;66.10;;;;;;5032337;28;20025;-36
2022/10/29 12:49:08;;;;;;;26.67;6.85;;;22.80;67.20;;;;;;5027459;28;20022;-36
2022/10/29 12:51:44;;;;;;;24.73;5.43;;;22.80;67.10;;;;;;5031022;28;20413;-37
2022/10/29 12:54:39;;;;;;;13.73;5.00;;;22.90;67.20;;;;;;5037380;28;20383;-37
2022/10/29 12:57:32;;;;;;;15.18;5.57;;;22.90;67.00;;;;;;5032796;28;20025;-37
2022/10/29 13:00:24;;;;;;;21.15;6.38;;;22.90;66.50;;;;;;5018565;28;20033;-37
2022/10/29 13:02:51;;;;;;;20.20;6.30;;;22.90;67.20;;;;;;5021539;28;20044;-37
2022/10/29 13:05:34;;;;;;;31.23;5.85;;;22.90;67.60;;;;;;5037378;28;20045;-36
2022/10/29 13:08:02;;;;;;;27.38;6.13;;;22.90;67.60;;;;;;5045931;28;20408;-37